createdAt,value
2023-04-15T00:01:04.102Z,5.19
2023-04-15T00:31:04.150Z,5.25
2023-04-15T01:01:04.106Z,5.13
2023-04-15T01:31:04.136Z,5.31
2023-04-15T02:01:04.134Z,5.31
2023-04-15T02:31:04.122Z,5.5
2023-04-15T03:01:04.169Z,5.75
2023-04-15T03:33:30.874Z,5.56
2023-04-15T04:01:04.533Z,5.25
2023-04-15T04:31:04.501Z,5.44
2023-04-15T05:01:04.510Z,5.38
2023-04-15T05:31:04.540Z,5.56
2023-04-15T06:01:04.535Z,5.81
2023-04-15T06:31:04.526Z,6.31
2023-04-15T07:01:04.680Z,6.5
2023-04-15T07:31:04.551Z,6.44
2023-04-15T08:01:04.540Z,6.31
2023-04-15T08:31:04.588Z,5.88
2023-04-15T09:01:04.599Z,6
2023-04-15T09:31:04.576Z,5.81
2023-04-15T10:01:04.581Z,6.5
2023-04-15T10:31:04.616Z,6.5
2023-04-15T11:01:04.570Z,6.88
2023-04-15T11:31:04.748Z,8.31
2023-04-15T12:01:04.595Z,7.31
2023-04-15T12:31:04.625Z,8.5
2023-04-15T13:01:04.601Z,8.06
2023-04-15T13:31:04.644Z,8.69
2023-04-15T14:01:05.770Z,7.88
2023-04-15T14:31:04.649Z,7.81
2023-04-15T15:01:04.703Z,7.31
2023-04-15T15:31:04.718Z,7.38
2023-04-15T16:01:04.907Z,7.31
2023-04-15T16:31:04.654Z,7.13
2023-04-15T17:01:04.762Z,7.31
2023-04-15T17:31:04.711Z,7.25
2023-04-15T18:01:04.658Z,7.06
2023-04-15T19:01:05.211Z,6.94
2023-04-15T19:31:05.139Z,6.94
2023-04-15T20:01:05.149Z,6.75
2023-04-15T20:31:05.164Z,6.81
2023-04-15T21:01:05.417Z,6.88
2023-04-15T21:31:05.139Z,6.94
2023-04-15T22:01:05.178Z,6.94
2023-04-15T22:31:05.189Z,6.81
2023-04-15T23:01:05.159Z,7.19
2023-04-15T23:31:05.184Z,7.19
